sensor_id;sensor_type;location;lat;lon;timestamp;P1;durP1;ratioP1;P2;durP2;ratioP2
75737;SDS011;64356;45.638;13.764;2023-10-13T00:01:24;31.15;;;20.00;;
75737;SDS011;64356;45.638;13.764;2023-10-13T00:03:50;25.42;;;18.70;;
75737;SDS011;64356;45.638;13.764;2023-10-13T00:06:17;22.20;;;17.92;;
75737;SDS011;64356;45.638;13.764;2023-10-13T00:08:44;24.20;;;16.60;;
75737;SDS011;64356;45.638;13.764;2023-10-13T00:11:13;30.73;;;18.33;;
75737;SDS011;64356;45.638;13.764;2023-10-13T00:13:40;26.58;;;18.27;;
75737;SDS011;64356;45.638;13.764;2023-10-13T00:16:19;31.95;;;17.60;;
75737;SDS011;64356;45.638;13.764;2023-10-13T00:18:52;26.67;;;18.65;;
75737;SDS011;64356;45.638;13.764;2023-10-13T00:21:22;27.10;;;18.67;;
75737;SDS011;64356;45.638;13.764;2023-10-13T00:23:58;26.20;;;17.13;;
75737;SDS011;64356;45.638;13.764;2023-10-13T00:26:31;27.58;;;17.52;;
75737;SDS011;64356;45.638;13.764;2023-10-13T00:29:04;22.65;;;16.92;;
75737;SDS011;64356;45.638;13.764;2023-10-13T00:31:34;24.80;;;18.27;;
75737;SDS011;64356;45.638;13.764;2023-10-13T00:34:01;27.25;;;17.80;;
75737;SDS011;64356;45.638;13.764;2023-10-13T00:36:40;26.73;;;17.13;;
75737;SDS011;64356;45.638;13.764;2023-10-13T00:39:26;27.45;;;15.70;;
75737;SDS011;64356;45.638;13.764;2023-10-13T00:41:54;25.25;;;16.42;;
75737;SDS011;64356;45.638;13.764;2023-10-13T00:44:24;22.38;;;16.38;;
75737;SDS011;64356;45.638;13.764;2023-10-13T00:47:16;26.17;;;17.15;;
75737;SDS011;64356;45.638;13.764;2023-10-13T00:50:06;22.52;;;15.75;;
75737;SDS011;64356;45.638;13.764;2023-10-13T00:52:36;27.67;;;15.65;;
75737;SDS011;64356;45.638;13.764;2023-10-13T00:55:06;23.15;;;15.75;;
75737;SDS011;64356;45.638;13.764;2023-10-13T00:57:34;22.92;;;16.90;;
75737;SDS011;64356;45.638;13.764;2023-10-13T01:00:01;28.60;;;16.00;;
75737;SDS011;64356;45.638;13.764;2023-10-13T01:05:08;24.60;;;15.68;;
75737;SDS011;64356;45.638;13.764;2023-10-13T01:07:45;26.75;;;15.23;;
75737;SDS011;64356;45.638;13.764;2023-10-13T01:12:41;24.73;;;16.13;;
75737;SDS011;64356;45.638;13.764;2023-10-13T01:15:08;22.95;;;15.77;;
75737;SDS011;64356;45.638;13.764;2023-10-13T01:17:36;23.23;;;14.43;;
75737;SDS011;64356;45.638;13.764;2023-10-13T01:20:02;21.65;;;14.73;;
75737;SDS011;64356;45.638;13.764;2023-10-13T01:22:30;28.35;;;15.55;;
75737;SDS011;64356;45.638;13.764;2023-10-13T01:24:57;21.02;;;14.60;;
75737;SDS011;64356;45.638;13.764;2023-10-13T01:27:30;21.50;;;14.68;;
75737;SDS011;64356;45.638;13.764;2023-10-13T01:29:56;22.75;;;15.77;;
75737;SDS011;64356;45.638;13.764;2023-10-13T01:32:31;25.38;;;15.98;;
75737;SDS011;64356;45.638;13.764;2023-10-13T01:34:56;24.10;;;15.68;;
75737;SDS011;64356;45.638;13.764;2023-10-13T01:37:30;21.65;;;15.52;;
75737;SDS011;64356;45.638;13.764;2023-10-13T01:39:55;26.10;;;15.02;;
75737;SDS011;64356;45.638;13.764;2023-10-13T01:42:21;25.73;;;15.45;;
75737;SDS011;64356;45.638;13.764;2023-10-13T01:44:47;21.55;;;14.65;;
75737;SDS011;64356;45.638;13.764;2023-10-13T01:47:13;22.77;;;14.32;;
75737;SDS011;64356;45.638;13.764;2023-10-13T01:49:41;24.15;;;15.73;;
75737;SDS011;64356;45.638;13.764;2023-10-13T01:52:13;25.33;;;15.20;;
75737;SDS011;64356;45.638;13.764;2023-10-13T01:54:45;26.05;;;14.45;;
75737;SDS011;64356;45.638;13.764;2023-10-13T01:57:14;25.48;;;14.30;;
75737;SDS011;64356;45.638;13.764;2023-10-13T01:59:45;15.90;;;13.70;;
75737;SDS011;64356;45.638;13.764;2023-10-13T02:02:13;25.95;;;14.82;;
75737;SDS011;64356;45.638;13.764;2023-10-13T02:04:42;23.83;;;14.60;;
75737;SDS011;64356;45.638;13.764;2023-10-13T02:07:16;20.35;;;15.00;;
75737;SDS011;64356;45.638;13.764;2023-10-13T02:09:42;21.40;;;13.77;;
75737;SDS011;64356;45.638;13.764;2023-10-13T02:12:09;22.02;;;14.13;;
75737;SDS011;64356;45.638;13.764;2023-10-13T02:14:35;25.60;;;15.02;;
75737;SDS011;64356;45.638;13.764;2023-10-13T02:17:04;25.00;;;15.63;;
75737;SDS011;64356;45.638;13.764;2023-10-13T02:19:41;23.95;;;14.88;;
75737;SDS011;64356;45.638;13.764;2023-10-13T02:22:10;20.35;;;13.65;;
75737;SDS011;64356;45.638;13.764;2023-10-13T02:25:06;22.95;;;14.63;;
75737;SDS011;64356;45.638;13.764;2023-10-13T02:27:36;22.33;;;13.82;;
75737;SDS011;64356;45.638;13.764;2023-10-13T02:30:06;32.30;;;14.18;;
75737;SDS011;64356;45.638;13.764;2023-10-13T02:32:38;22.38;;;14.07;;
75737;SDS011;64356;45.638;13.764;2023-10-13T02:35:08;23.73;;;14.57;;
75737;SDS011;64356;45.638;13.764;2023-10-13T02:37:41;22.83;;;13.30;;
75737;SDS011;64356;45.638;13.764;2023-10-13T02:40:13;24.90;;;14.90;;
75737;SDS011;64356;45.638;13.764;2023-10-13T02:42:38;19.88;;;13.48;;
75737;SDS011;64356;45.638;13.764;2023-10-13T02:45:04;18.20;;;14.15;;
75737;SDS011;64356;45.638;13.764;2023-10-13T02:47:32;22.35;;;14.00;;
75737;SDS011;64356;45.638;13.764;2023-10-13T02:49:58;18.95;;;13.80;;
75737;SDS011;64356;45.638;13.764;2023-10-13T02:52:26;17.90;;;13.88;;
75737;SDS011;64356;45.638;13.764;2023-10-13T02:54:52;25.15;;;13.43;;
75737;SDS011;64356;45.638;13.764;2023-10-13T02:57:17;21.23;;;13.50;;
75737;SDS011;64356;45.638;13.764;2023-10-13T02:59:44;20.23;;;13.65;;
75737;SDS011;64356;45.638;13.764;2023-10-13T03:02:21;27.52;;;12.98;;
75737;SDS011;64356;45.638;13.764;2023-10-13T03:04:55;17.65;;;12.93;;
75737;SDS011;64356;45.638;13.764;2023-10-13T03:07:47;28.38;;;13.50;;
75737;SDS011;64356;45.638;13.764;2023-10-13T03:10:15;19.95;;;13.43;;
75737;SDS011;64356;45.638;13.764;2023-10-13T03:12:44;17.85;;;12.38;;
75737;SDS011;64356;45.638;13.764;2023-10-13T03:15:13;20.63;;;14.40;;
75737;SDS011;64356;45.638;13.764;2023-10-13T03:17:42;13.30;;;11.35;;
75737;SDS011;64356;45.638;13.764;2023-10-13T03:20:12;21.70;;;13.60;;
75737;SDS011;64356;45.638;13.764;2023-10-13T03:22:40;19.58;;;13.57;;
75737;SDS011;64356;45.638;13.764;2023-10-13T03:25:10;29.63;;;14.93;;
75737;SDS011;64356;45.638;13.764;2023-10-13T03:27:43;20.67;;;13.25;;
75737;SDS011;64356;45.638;13.764;2023-10-13T03:30:17;24.77;;;13.68;;
75737;SDS011;64356;45.638;13.764;2023-10-13T03:32:45;25.60;;;14.07;;
75737;SDS011;64356;45.638;13.764;2023-10-13T03:35:13;22.30;;;14.02;;
75737;SDS011;64356;45.638;13.764;2023-10-13T03:37:49;18.85;;;13.30;;
75737;SDS011;64356;45.638;13.764;2023-10-13T03:40:19;28.70;;;13.48;;
75737;SDS011;64356;45.638;13.764;2023-10-13T03:42:45;20.80;;;13.65;;
75737;SDS011;64356;45.638;13.764;2023-10-13T03:45:33;21.75;;;13.85;;
75737;SDS011;64356;45.638;13.764;2023-10-13T03:48:13;21.48;;;13.75;;
75737;SDS011;64356;45.638;13.764;2023-10-13T03:50:55;19.73;;;12.55;;
75737;SDS011;64356;45.638;13.764;2023-10-13T03:53:31;25.02;;;13.80;;
75737;SDS011;64356;45.638;13.764;2023-10-13T03:56:02;20.77;;;14.18;;
75737;SDS011;64356;45.638;13.764;2023-10-13T03:58:40;17.88;;;13.38;;
75737;SDS011;64356;45.638;13.764;2023-10-13T04:01:13;26.02;;;13.93;;
75737;SDS011;64356;45.638;13.764;2023-10-13T04:03:43;20.40;;;13.88;;
75737;SDS011;64356;45.638;13.764;2023-10-13T04:06:27;22.65;;;12.75;;
75737;SDS011;64356;45.638;13.764;2023-10-13T04:09:17;22.83;;;13.55;;
75737;SDS011;64356;45.638;13.764;2023-10-13T04:11:59;21.52;;;13.00;;
75737;SDS011;64356;45.638;13.764;2023-10-13T04:14:32;24.05;;;13.23;;
75737;SDS011;64356;45.638;13.764;2023-10-13T04:17:20;21.98;;;12.43;;
75737;SDS011;64356;45.638;13.764;2023-10-13T04:19:51;26.38;;;13.43;;
75737;SDS011;64356;45.638;13.764;2023-10-13T04:22:31;23.23;;;13.88;;
75737;SDS011;64356;45.638;13.764;2023-10-13T04:25:12;20.83;;;13.18;;
75737;SDS011;64356;45.638;13.764;2023-10-13T04:27:59;24.80;;;13.80;;
75737;SDS011;64356;45.638;13.764;2023-10-13T04:30:37;20.58;;;13.40;;
75737;SDS011;64356;45.638;13.764;2023-10-13T04:33:27;18.88;;;13.45;;
75737;SDS011;64356;45.638;13.764;2023-10-13T04:38:50;24.45;;;13.68;;
75737;SDS011;64356;45.638;13.764;2023-10-13T04:41:46;21.55;;;13.80;;
75737;SDS011;64356;45.638;13.764;2023-10-13T04:44:15;23.92;;;13.93;;
75737;SDS011;64356;45.638;13.764;2023-10-13T04:47:00;22.80;;;14.52;;
75737;SDS011;64356;45.638;13.764;2023-10-13T04:49:26;19.45;;;14.13;;
75737;SDS011;64356;45.638;13.764;2023-10-13T04:51:59;20.88;;;12.90;;
75737;SDS011;64356;45.638;13.764;2023-10-13T04:57:12;25.52;;;13.82;;
75737;SDS011;64356;45.638;13.764;2023-10-13T05:00:08;26.15;;;13.70;;
75737;SDS011;64356;45.638;13.764;2023-10-13T05:02:40;23.42;;;13.40;;
75737;SDS011;64356;45.638;13.764;2023-10-13T05:05:20;20.58;;;13.52;;
75737;SDS011;64356;45.638;13.764;2023-10-13T05:08:05;21.58;;;13.82;;
75737;SDS011;64356;45.638;13.764;2023-10-13T05:10:49;22.70;;;12.68;;
75737;SDS011;64356;45.638;13.764;2023-10-13T05:13:33;18.98;;;13.75;;
75737;SDS011;64356;45.638;13.764;2023-10-13T05:16:17;23.67;;;14.05;;
75737;SDS011;64356;45.638;13.764;2023-10-13T05:19:01;19.58;;;14.02;;
75737;SDS011;64356;45.638;13.764;2023-10-13T05:21:56;21.45;;;14.32;;
75737;SDS011;64356;45.638;13.764;2023-10-13T05:24:40;22.65;;;13.40;;
75737;SDS011;64356;45.638;13.764;2023-10-13T05:27:24;37.38;;;15.18;;
75737;SDS011;64356;45.638;13.764;2023-10-13T05:30:09;26.08;;;14.27;;
75737;SDS011;64356;45.638;13.764;2023-10-13T05:32:53;28.08;;;15.45;;
75737;SDS011;64356;45.638;13.764;2023-10-13T05:35:38;29.75;;;16.27;;
75737;SDS011;64356;45.638;13.764;2023-10-13T05:38:22;35.63;;;17.05;;
75737;SDS011;64356;45.638;13.764;2023-10-13T05:41:06;37.88;;;17.13;;
75737;SDS011;64356;45.638;13.764;2023-10-13T05:43:50;29.73;;;16.60;;
75737;SDS011;64356;45.638;13.764;2023-10-13T05:46:34;33.22;;;17.05;;
75737;SDS011;64356;45.638;13.764;2023-10-13T05:49:14;34.72;;;16.05;;
75737;SDS011;64356;45.638;13.764;2023-10-13T05:51:43;43.67;;;17.88;;
75737;SDS011;64356;45.638;13.764;2023-10-13T05:54:22;44.97;;;17.58;;
75737;SDS011;64356;45.638;13.764;2023-10-13T05:57:07;65.53;;;17.40;;
75737;SDS011;64356;45.638;13.764;2023-10-13T05:59:51;62.67;;;18.63;;
75737;SDS011;64356;45.638;13.764;2023-10-13T06:02:35;44.55;;;18.50;;
75737;SDS011;64356;45.638;13.764;2023-10-13T06:05:19;39.83;;;17.85;;
75737;SDS011;64356;45.638;13.764;2023-10-13T06:08:03;37.88;;;18.25;;
75737;SDS011;64356;45.638;13.764;2023-10-13T06:10:48;42.63;;;20.20;;
75737;SDS011;64356;45.638;13.764;2023-10-13T06:13:32;39.85;;;18.75;;
75737;SDS011;64356;45.638;13.764;2023-10-13T06:16:16;37.00;;;20.40;;
75737;SDS011;64356;45.638;13.764;2023-10-13T06:19:01;43.10;;;20.10;;
75737;SDS011;64356;45.638;13.764;2023-10-13T06:21:46;35.47;;;20.77;;
75737;SDS011;64356;45.638;13.764;2023-10-13T06:24:31;42.97;;;19.98;;
75737;SDS011;64356;45.638;13.764;2023-10-13T06:27:15;41.70;;;17.75;;
75737;SDS011;64356;45.638;13.764;2023-10-13T06:30:00;42.90;;;19.63;;
75737;SDS011;64356;45.638;13.764;2023-10-13T06:32:26;40.67;;;19.00;;
75737;SDS011;64356;45.638;13.764;2023-10-13T06:34:55;38.35;;;18.83;;
75737;SDS011;64356;45.638;13.764;2023-10-13T06:37:32;42.08;;;18.38;;
75737;SDS011;64356;45.638;13.764;2023-10-13T06:40:02;35.08;;;17.27;;
75737;SDS011;64356;45.638;13.764;2023-10-13T06:42:46;42.70;;;19.95;;
75737;SDS011;64356;45.638;13.764;2023-10-13T06:45:12;52.30;;;19.92;;
75737;SDS011;64356;45.638;13.764;2023-10-13T06:47:38;35.53;;;17.67;;
75737;SDS011;64356;45.638;13.764;2023-10-13T06:50:07;33.58;;;18.15;;
75737;SDS011;64356;45.638;13.764;2023-10-13T06:52:47;39.40;;;18.30;;
75737;SDS011;64356;45.638;13.764;2023-10-13T06:55:14;41.00;;;18.60;;
75737;SDS011;64356;45.638;13.764;2023-10-13T06:57:45;46.00;;;19.23;;
75737;SDS011;64356;45.638;13.764;2023-10-13T07:00:12;37.72;;;18.33;;
75737;SDS011;64356;45.638;13.764;2023-10-13T07:02:45;41.75;;;18.17;;
75737;SDS011;64356;45.638;13.764;2023-10-13T07:05:17;40.72;;;19.45;;
75737;SDS011;64356;45.638;13.764;2023-10-13T07:07:44;31.48;;;17.13;;
75737;SDS011;64356;45.638;13.764;2023-10-13T07:10:10;40.80;;;18.65;;
75737;SDS011;64356;45.638;13.764;2023-10-13T07:12:40;38.50;;;18.80;;
75737;SDS011;64356;45.638;13.764;2023-10-13T07:15:09;34.47;;;20.00;;
75737;SDS011;64356;45.638;13.764;2023-10-13T07:17:41;32.92;;;19.88;;
75737;SDS011;64356;45.638;13.764;2023-10-13T07:20:10;33.05;;;19.30;;
75737;SDS011;64356;45.638;13.764;2023-10-13T07:22:49;41.33;;;19.55;;
75737;SDS011;64356;45.638;13.764;2023-10-13T07:25:37;37.13;;;20.42;;
75737;SDS011;64356;45.638;13.764;2023-10-13T07:28:06;41.72;;;19.05;;
75737;SDS011;64356;45.638;13.764;2023-10-13T07:30:34;41.08;;;20.05;;
75737;SDS011;64356;45.638;13.764;2023-10-13T07:33:19;42.03;;;18.60;;
75737;SDS011;64356;45.638;13.764;2023-10-13T07:35:48;41.70;;;18.55;;
75737;SDS011;64356;45.638;13.764;2023-10-13T07:38:25;43.85;;;19.33;;
75737;SDS011;64356;45.638;13.764;2023-10-13T07:40:55;34.20;;;17.52;;
75737;SDS011;64356;45.638;13.764;2023-10-13T07:43:31;32.90;;;17.45;;
75737;SDS011;64356;45.638;13.764;2023-10-13T07:45:58;38.22;;;18.08;;
75737;SDS011;64356;45.638;13.764;2023-10-13T07:48:24;26.42;;;16.98;;
75737;SDS011;64356;45.638;13.764;2023-10-13T07:51:00;39.88;;;17.42;;
75737;SDS011;64356;45.638;13.764;2023-10-13T07:53:31;48.33;;;18.08;;
75737;SDS011;64356;45.638;13.764;2023-10-13T07:56:01;32.85;;;16.45;;
75737;SDS011;64356;45.638;13.764;2023-10-13T07:58:33;46.70;;;17.92;;
75737;SDS011;64356;45.638;13.764;2023-10-13T08:01:12;29.35;;;16.13;;
75737;SDS011;64356;45.638;13.764;2023-10-13T08:03:42;37.58;;;16.05;;
75737;SDS011;64356;45.638;13.764;2023-10-13T08:06:12;41.53;;;17.85;;
75737;SDS011;64356;45.638;13.764;2023-10-13T08:15:23;36.22;;;18.35;;
75737;SDS011;64356;45.638;13.764;2023-10-13T08:17:58;38.72;;;19.05;;
75737;SDS011;64356;45.638;13.764;2023-10-13T08:20:31;44.47;;;19.65;;
75737;SDS011;64356;45.638;13.764;2023-10-13T08:23:03;28.63;;;17.48;;
75737;SDS011;64356;45.638;13.764;2023-10-13T08:25:59;40.03;;;20.15;;
75737;SDS011;64356;45.638;13.764;2023-10-13T08:28:52;43.00;;;20.90;;
75737;SDS011;64356;45.638;13.764;2023-10-13T08:31:21;39.47;;;22.88;;
75737;SDS011;64356;45.638;13.764;2023-10-13T08:33:50;31.23;;;20.35;;
75737;SDS011;64356;45.638;13.764;2023-10-13T08:36:23;38.47;;;20.85;;
75737;SDS011;64356;45.638;13.764;2023-10-13T08:38:55;34.72;;;21.35;;
75737;SDS011;64356;45.638;13.764;2023-10-13T08:41:24;40.58;;;21.23;;
75737;SDS011;64356;45.638;13.764;2023-10-13T08:43:54;44.42;;;22.55;;
75737;SDS011;64356;45.638;13.764;2023-10-13T08:46:30;47.42;;;21.30;;
75737;SDS011;64356;45.638;13.764;2023-10-13T08:49:16;48.40;;;22.83;;
75737;SDS011;64356;45.638;13.764;2023-10-13T08:51:43;38.30;;;21.52;;
75737;SDS011;64356;45.638;13.764;2023-10-13T08:54:15;42.53;;;24.48;;
75737;SDS011;64356;45.638;13.764;2023-10-13T08:56:49;36.92;;;22.27;;
75737;SDS011;64356;45.638;13.764;2023-10-13T08:59:31;36.22;;;23.13;;
75737;SDS011;64356;45.638;13.764;2023-10-13T09:02:25;34.95;;;22.05;;
75737;SDS011;64356;45.638;13.764;2023-10-13T09:05:17;39.90;;;22.63;;
75737;SDS011;64356;45.638;13.764;2023-10-13T09:08:12;45.65;;;23.80;;
75737;SDS011;64356;45.638;13.764;2023-10-13T09:10:42;40.33;;;25.02;;
75737;SDS011;64356;45.638;13.764;2023-10-13T09:13:36;43.50;;;22.85;;
75737;SDS011;64356;45.638;13.764;2023-10-13T09:16:12;45.67;;;25.80;;
75737;SDS011;64356;45.638;13.764;2023-10-13T09:19:07;48.72;;;27.80;;
75737;SDS011;64356;45.638;13.764;2023-10-13T09:21:40;57.28;;;28.48;;
75737;SDS011;64356;45.638;13.764;2023-10-13T09:24:10;40.03;;;25.20;;
75737;SDS011;64356;45.638;13.764;2023-10-13T09:26:58;36.70;;;26.02;;
75737;SDS011;64356;45.638;13.764;2023-10-13T09:29:26;47.33;;;26.58;;
75737;SDS011;64356;45.638;13.764;2023-10-13T09:31:58;54.67;;;28.70;;
75737;SDS011;64356;45.638;13.764;2023-10-13T09:34:26;58.33;;;31.10;;
75737;SDS011;64356;45.638;13.764;2023-10-13T09:36:57;52.30;;;30.03;;
75737;SDS011;64356;45.638;13.764;2023-10-13T09:39:24;41.67;;;27.00;;
75737;SDS011;64356;45.638;13.764;2023-10-13T09:41:55;42.92;;;27.95;;
75737;SDS011;64356;45.638;13.764;2023-10-13T09:44:26;47.28;;;28.52;;
75737;SDS011;64356;45.638;13.764;2023-10-13T09:46:57;45.03;;;28.15;;
75737;SDS011;64356;45.638;13.764;2023-10-13T09:49:38;52.95;;;29.30;;
75737;SDS011;64356;45.638;13.764;2023-10-13T09:52:11;38.45;;;25.58;;
75737;SDS011;64356;45.638;13.764;2023-10-13T09:55:29;61.65;;;31.75;;
75737;SDS011;64356;45.638;13.764;2023-10-13T09:57:54;73.18;;;31.70;;
75737;SDS011;64356;45.638;13.764;2023-10-13T10:00:29;49.25;;;27.70;;
75737;SDS011;64356;45.638;13.764;2023-10-13T10:03:06;62.05;;;27.48;;
75737;SDS011;64356;45.638;13.764;2023-10-13T10:05:57;53.78;;;29.15;;
75737;SDS011;64356;45.638;13.764;2023-10-13T10:08:52;54.83;;;28.05;;
75737;SDS011;64356;45.638;13.764;2023-10-13T10:12:25;71.82;;;31.83;;
75737;SDS011;64356;45.638;13.764;2023-10-13T10:14:40;56.72;;;30.23;;
75737;SDS011;64356;45.638;13.764;2023-10-13T10:17:13;48.90;;;28.17;;
75737;SDS011;64356;45.638;13.764;2023-10-13T10:19:48;48.60;;;27.77;;
75737;SDS011;64356;45.638;13.764;2023-10-13T10:22:29;43.00;;;24.88;;
75737;SDS011;64356;45.638;13.764;2023-10-13T10:25:02;44.00;;;27.83;;
75737;SDS011;64356;45.638;13.764;2023-10-13T10:27:32;49.10;;;30.35;;
75737;SDS011;64356;45.638;13.764;2023-10-13T10:29:59;42.60;;;26.48;;
75737;SDS011;64356;45.638;13.764;2023-10-13T10:32:53;41.92;;;27.05;;
75737;SDS011;64356;45.638;13.764;2023-10-13T10:35:37;53.33;;;26.42;;
75737;SDS011;64356;45.638;13.764;2023-10-13T10:41:10;53.28;;;28.67;;
75737;SDS011;64356;45.638;13.764;2023-10-13T10:43:39;57.78;;;29.85;;
75737;SDS011;64356;45.638;13.764;2023-10-13T10:46:17;54.22;;;30.35;;
75737;SDS011;64356;45.638;13.764;2023-10-13T10:48:50;41.63;;;25.73;;
75737;SDS011;64356;45.638;13.764;2023-10-13T10:51:21;49.10;;;27.35;;
75737;SDS011;64356;45.638;13.764;2023-10-13T10:53:52;54.83;;;26.95;;
75737;SDS011;64356;45.638;13.764;2023-10-13T10:56:21;59.85;;;29.95;;
75737;SDS011;64356;45.638;13.764;2023-10-13T10:58:50;62.33;;;31.25;;
75737;SDS011;64356;45.638;13.764;2023-10-13T11:01:23;62.13;;;30.25;;
75737;SDS011;64356;45.638;13.764;2023-10-13T11:04:02;48.67;;;29.60;;
75737;SDS011;64356;45.638;13.764;2023-10-13T11:06:52;59.05;;;31.02;;
75737;SDS011;64356;45.638;13.764;2023-10-13T11:09:24;49.75;;;31.50;;
75737;SDS011;64356;45.638;13.764;2023-10-13T11:12:17;55.05;;;32.20;;
75737;SDS011;64356;45.638;13.764;2023-10-13T11:14:48;55.00;;;30.67;;
75737;SDS011;64356;45.638;13.764;2023-10-13T11:17:25;47.53;;;28.52;;
75737;SDS011;64356;45.638;13.764;2023-10-13T11:20:16;58.38;;;31.63;;
75737;SDS011;64356;45.638;13.764;2023-10-13T11:22:50;53.75;;;32.70;;
75737;SDS011;64356;45.638;13.764;2023-10-13T11:25:24;54.25;;;34.63;;
75737;SDS011;64356;45.638;13.764;2023-10-13T11:27:58;52.20;;;30.85;;
75737;SDS011;64356;45.638;13.764;2023-10-13T11:30:25;49.92;;;29.65;;
75737;SDS011;64356;45.638;13.764;2023-10-13T11:33:09;49.45;;;30.08;;
75737;SDS011;64356;45.638;13.764;2023-10-13T11:35:43;49.33;;;29.30;;
75737;SDS011;64356;45.638;13.764;2023-10-13T11:38:18;46.55;;;28.20;;
75737;SDS011;64356;45.638;13.764;2023-10-13T11:40:52;47.15;;;25.80;;
75737;SDS011;64356;45.638;13.764;2023-10-13T11:43:40;42.85;;;25.25;;
75737;SDS011;64356;45.638;13.764;2023-10-13T11:46:08;53.08;;;30.83;;
75737;SDS011;64356;45.638;13.764;2023-10-13T11:48:34;43.95;;;28.80;;
75737;SDS011;64356;45.638;13.764;2023-10-13T11:51:04;73.32;;;33.28;;
75737;SDS011;64356;45.638;13.764;2023-10-13T11:53:36;54.93;;;29.37;;
75737;SDS011;64356;45.638;13.764;2023-10-13T11:56:03;47.17;;;29.02;;
75737;SDS011;64356;45.638;13.764;2023-10-13T11:58:34;60.42;;;33.80;;
75737;SDS011;64356;45.638;13.764;2023-10-13T12:01:00;63.50;;;34.10;;
75737;SDS011;64356;45.638;13.764;2023-10-13T12:03:51;52.85;;;31.55;;
75737;SDS011;64356;45.638;13.764;2023-10-13T12:06:36;62.05;;;34.78;;
75737;SDS011;64356;45.638;13.764;2023-10-13T12:09:02;59.80;;;32.67;;
75737;SDS011;64356;45.638;13.764;2023-10-13T12:11:41;61.30;;;32.25;;
75737;SDS011;64356;45.638;13.764;2023-10-13T12:14:25;54.47;;;32.53;;
75737;SDS011;64356;45.638;13.764;2023-10-13T12:16:57;60.78;;;32.85;;
75737;SDS011;64356;45.638;13.764;2023-10-13T12:19:28;48.97;;;30.55;;
75737;SDS011;64356;45.638;13.764;2023-10-13T12:21:55;55.13;;;29.08;;
75737;SDS011;64356;45.638;13.764;2023-10-13T12:26:56;60.97;;;33.03;;
75737;SDS011;64356;45.638;13.764;2023-10-13T12:29:25;59.58;;;34.35;;
75737;SDS011;64356;45.638;13.764;2023-10-13T12:31:57;48.53;;;29.35;;
75737;SDS011;64356;45.638;13.764;2023-10-13T12:34:39;51.10;;;30.23;;
75737;SDS011;64356;45.638;13.764;2023-10-13T12:37:24;58.63;;;28.70;;
75737;SDS011;64356;45.638;13.764;2023-10-13T12:40:09;51.67;;;29.73;;
75737;SDS011;64356;45.638;13.764;2023-10-13T12:42:56;46.75;;;29.38;;
75737;SDS011;64356;45.638;13.764;2023-10-13T12:48:28;52.80;;;28.00;;
75737;SDS011;64356;45.638;13.764;2023-10-13T12:51:13;48.88;;;28.80;;
75737;SDS011;64356;45.638;13.764;2023-10-13T12:53:48;55.10;;;27.55;;
75737;SDS011;64356;45.638;13.764;2023-10-13T12:56:15;48.28;;;27.55;;
75737;SDS011;64356;45.638;13.764;2023-10-13T12:58:42;46.90;;;26.25;;
75737;SDS011;64356;45.638;13.764;2023-10-13T13:01:20;54.53;;;29.20;;
75737;SDS011;64356;45.638;13.764;2023-10-13T13:03:47;46.42;;;27.30;;
75737;SDS011;64356;45.638;13.764;2023-10-13T13:06:16;43.95;;;26.55;;
75737;SDS011;64356;45.638;13.764;2023-10-13T13:08:52;38.40;;;25.25;;
75737;SDS011;64356;45.638;13.764;2023-10-13T13:11:18;42.95;;;26.15;;
75737;SDS011;64356;45.638;13.764;2023-10-13T13:13:45;46.65;;;26.23;;
75737;SDS011;64356;45.638;13.764;2023-10-13T13:16:12;39.97;;;27.30;;
75737;SDS011;64356;45.638;13.764;2023-10-13T13:18:49;42.70;;;24.30;;
75737;SDS011;64356;45.638;13.764;2023-10-13T13:21:20;43.90;;;26.00;;
75737;SDS011;64356;45.638;13.764;2023-10-13T13:23:49;37.85;;;24.00;;
75737;SDS011;64356;45.638;13.764;2023-10-13T13:26:15;41.25;;;24.45;;
75737;SDS011;64356;45.638;13.764;2023-10-13T13:28:42;42.92;;;26.35;;
75737;SDS011;64356;45.638;13.764;2023-10-13T13:31:09;37.53;;;25.42;;
75737;SDS011;64356;45.638;13.764;2023-10-13T13:33:37;40.55;;;26.15;;
75737;SDS011;64356;45.638;13.764;2023-10-13T13:36:06;54.65;;;28.00;;
75737;SDS011;64356;45.638;13.764;2023-10-13T13:38:32;44.20;;;26.23;;
75737;SDS011;64356;45.638;13.764;2023-10-13T13:40:59;42.08;;;26.17;;
75737;SDS011;64356;45.638;13.764;2023-10-13T13:43:27;43.90;;;26.10;;
75737;SDS011;64356;45.638;13.764;2023-10-13T13:46:28;45.47;;;27.15;;
75737;SDS011;64356;45.638;13.764;2023-10-13T13:48:57;40.30;;;27.23;;
75737;SDS011;64356;45.638;13.764;2023-10-13T13:51:27;47.70;;;26.75;;
75737;SDS011;64356;45.638;13.764;2023-10-13T13:53:54;46.08;;;26.88;;
75737;SDS011;64356;45.638;13.764;2023-10-13T13:56:20;41.10;;;24.77;;
75737;SDS011;64356;45.638;13.764;2023-10-13T13:58:50;45.00;;;26.92;;
75737;SDS011;64356;45.638;13.764;2023-10-13T14:01:16;47.08;;;25.77;;
75737;SDS011;64356;45.638;13.764;2023-10-13T14:03:44;49.70;;;26.75;;
75737;SDS011;64356;45.638;13.764;2023-10-13T14:06:24;45.28;;;25.90;;
75737;SDS011;64356;45.638;13.764;2023-10-13T14:08:52;46.10;;;26.05;;
75737;SDS011;64356;45.638;13.764;2023-10-13T14:11:23;42.10;;;27.65;;
75737;SDS011;64356;45.638;13.764;2023-10-13T14:14:11;47.78;;;27.10;;
75737;SDS011;64356;45.638;13.764;2023-10-13T14:16:38;35.40;;;25.23;;
75737;SDS011;64356;45.638;13.764;2023-10-13T14:19:12;39.30;;;25.48;;
75737;SDS011;64356;45.638;13.764;2023-10-13T14:21:56;44.58;;;25.63;;
75737;SDS011;64356;45.638;13.764;2023-10-13T14:24:22;41.80;;;28.10;;
75737;SDS011;64356;45.638;13.764;2023-10-13T14:29:19;57.17;;;28.40;;
75737;SDS011;64356;45.638;13.764;2023-10-13T14:31:45;45.05;;;27.90;;
75737;SDS011;64356;45.638;13.764;2023-10-13T14:34:13;48.17;;;29.48;;
75737;SDS011;64356;45.638;13.764;2023-10-13T14:36:40;46.97;;;29.73;;
75737;SDS011;64356;45.638;13.764;2023-10-13T14:39:06;40.03;;;28.48;;
75737;SDS011;64356;45.638;13.764;2023-10-13T14:41:38;49.33;;;29.40;;
75737;SDS011;64356;45.638;13.764;2023-10-13T14:44:04;46.70;;;29.00;;
75737;SDS011;64356;45.638;13.764;2023-10-13T14:46:32;48.67;;;27.63;;
75737;SDS011;64356;45.638;13.764;2023-10-13T14:49:04;38.90;;;26.98;;
75737;SDS011;64356;45.638;13.764;2023-10-13T14:51:30;47.08;;;27.77;;
75737;SDS011;64356;45.638;13.764;2023-10-13T14:54:04;38.58;;;26.42;;
75737;SDS011;64356;45.638;13.764;2023-10-13T14:56:30;36.88;;;26.15;;
75737;SDS011;64356;45.638;13.764;2023-10-13T14:58:56;42.55;;;25.55;;
75737;SDS011;64356;45.638;13.764;2023-10-13T15:01:22;42.97;;;26.33;;
75737;SDS011;64356;45.638;13.764;2023-10-13T15:03:52;43.70;;;25.55;;
75737;SDS011;64356;45.638;13.764;2023-10-13T15:06:25;39.40;;;25.43;;
75737;SDS011;64356;45.638;13.764;2023-10-13T15:08:58;39.75;;;25.50;;
75737;SDS011;64356;45.638;13.764;2023-10-13T15:11:24;50.17;;;26.65;;
75737;SDS011;64356;45.638;13.764;2023-10-13T15:14:05;45.97;;;27.48;;
75737;SDS011;64356;45.638;13.764;2023-10-13T15:16:34;40.13;;;26.15;;
75737;SDS011;64356;45.638;13.764;2023-10-13T15:19:00;50.63;;;25.52;;